Time;durP1;ratioP1;P1;durP2;ratioP2;P2;SDS_P1;SDS_P2;PMS_P1;PMS_P2;Temp;Humidity;BMP_temperature;BMP_pressure;BME280_temperature;BME280_humidity;BME280_pressure;Samples;Min_cycle;Max_cycle;Signal;HPM_P1;HPM_P2
2022/05/12 00:01:12;;;;;;;6.68;2.63;;;;;;;-147.05;100.00;58721.66;5112277;28;20052;-70
2022/05/12 00:03:39;;;;;;;7.43;2.60;;;;;;;-147.05;100.00;58721.66;5102542;28;20036;-70
2022/05/12 00:06:06;;;;;;;11.05;2.30;;;;;;;-147.05;100.00;58721.66;5115475;28;20130;-69
2022/05/12 00:08:33;;;;;;;8.20;2.67;;;;;;;-147.05;100.00;58721.66;5100803;28;20040;-69
2022/05/12 00:11:00;;;;;;;5.18;2.10;;;;;;;-147.05;100.00;58721.66;5102047;28;20098;-70
2022/05/12 00:13:27;;;;;;;5.72;2.28;;;;;;;-147.05;100.00;58721.66;5100257;28;20089;-69
2022/05/12 00:15:55;;;;;;;5.78;2.28;;;;;;;-147.05;100.00;58721.66;5097514;28;20032;-69
2022/05/12 00:18:22;;;;;;;8.85;2.78;;;;;;;-147.05;100.00;58721.66;5099634;28;20129;-70
2022/05/12 00:20:52;;;;;;;10.57;2.60;;;;;;;-147.05;100.00;58721.66;5102397;28;20051;-69
2022/05/12 00:23:23;;;;;;;11.65;2.60;;;;;;;-147.05;100.00;58721.66;5099661;28;20040;-69
2022/05/12 00:25:51;;;;;;;7.68;2.85;;;;;;;-147.05;100.00;58721.66;5101625;28;20045;-69
2022/05/12 00:28:20;;;;;;;6.13;2.47;;;;;;;-147.05;100.00;58721.66;5097785;28;20544;-70
2022/05/12 00:30:50;;;;;;;6.93;2.08;;;;;;;-147.05;100.00;58721.66;5101641;28;20055;-69
2022/05/12 00:33:19;;;;;;;5.15;2.47;;;;;;;-147.05;100.00;58721.66;5099064;28;20522;-69
2022/05/12 00:35:47;;;;;;;8.95;2.35;;;;;;;-147.05;100.00;58721.66;5101249;28;20045;-70
2022/05/12 00:38:14;;;;;;;5.45;2.58;;;;;;;-147.05;100.00;58721.66;5098828;28;20414;-69
2022/05/12 00:40:44;;;;;;;9.18;2.20;;;;;;;-147.05;100.00;58721.66;5102109;28;20079;-69
2022/05/12 00:43:35;;;;;;;8.45;1.95;;;;;;;-147.05;100.00;58721.66;5096805;28;20471;-68
2022/05/12 00:46:08;;;;;;;8.77;1.88;;;;;;;-147.05;100.00;58721.66;5085485;28;20406;-69
2022/05/12 00:48:36;;;;;;;6.75;2.00;;;;;;;-147.05;100.00;58721.66;5096329;28;20041;-69
2022/05/12 00:51:05;;;;;;;6.22;2.10;;;;;;;-147.05;100.00;58721.66;5101225;28;20064;-69
2022/05/12 00:53:34;;;;;;;5.22;2.00;;;;;;;-147.05;100.00;58721.66;5098380;28;20586;-68
2022/05/12 00:56:03;;;;;;;5.13;1.75;;;;;;;-147.05;100.00;58721.66;5099311;28;20067;-69
2022/05/12 00:58:33;;;;;;;6.63;2.03;;;;;;;-147.05;100.00;58721.66;5099206;28;20032;-70
2022/05/12 01:01:05;;;;;;;7.32;1.80;;;;;;;-147.05;100.00;58721.66;5100524;28;20529;-69
2022/05/12 01:03:39;;;;;;;5.00;1.90;;;;;;;-147.05;100.00;58721.66;5080075;28;20048;-71
2022/05/12 01:06:08;;;;;;;8.95;2.28;;;;;;;-147.05;100.00;58721.66;5077892;28;20218;-70
2022/05/12 01:08:35;;;;;;;4.72;2.08;;;;;;;-147.05;100.00;58721.66;5099166;28;20037;-70
2022/05/12 01:11:10;;;;;;;6.80;2.40;;;;;;;-147.05;100.00;58721.66;5099511;28;20048;-69
2022/05/12 01:13:37;;;;;;;8.45;2.10;;;;;;;-147.05;100.00;58721.66;5100044;28;20532;-69
2022/05/12 01:16:05;;;;;;;5.65;1.80;;;;;;;-147.05;100.00;58721.66;5100045;28;20044;-70
2022/05/12 01:18:38;;;;;;;7.00;2.15;;;;;;;-147.05;100.00;58721.66;5099268;28;20194;-69
2022/05/12 01:21:08;;;;;;;9.15;2.25;;;;;;;-147.05;100.00;58721.66;5102269;28;20036;-69
2022/05/12 01:23:41;;;;;;;5.13;1.80;;;;;;;-147.05;100.00;58721.66;5099576;28;20060;-70
2022/05/12 01:26:12;;;;;;;5.93;2.10;;;;;;;-147.05;100.00;58721.66;5099796;28;20049;-69
2022/05/12 01:28:40;;;;;;;8.00;2.28;;;;;;;-147.05;100.00;58721.66;5096357;28;20046;-68
2022/05/12 01:31:08;;;;;;;4.60;1.90;;;;;;;-147.05;100.00;58721.66;5099060;28;20047;-68
2022/05/12 01:33:36;;;;;;;6.28;2.00;;;;;;;-147.05;100.00;58721.66;5100005;28;20071;-69
2022/05/12 01:36:03;;;;;;;5.75;2.15;;;;;;;-147.05;100.00;58721.66;5096866;28;20167;-70
2022/05/12 01:38:30;;;;;;;5.55;2.10;;;;;;;-147.05;100.00;58721.66;5090171;28;20123;-70
2022/05/12 01:40:57;;;;;;;7.63;2.08;;;;;;;-147.05;100.00;58721.66;5101351;28;20560;-68
2022/05/12 01:43:24;;;;;;;4.88;2.20;;;;;;;-147.05;100.00;58721.66;5099066;28;22063;-70
2022/05/12 01:45:51;;;;;;;5.43;2.45;;;;;;;-147.05;100.00;58721.66;5095974;28;20063;-69
2022/05/12 01:48:19;;;;;;;9.75;2.70;;;;;;;-147.05;100.00;58721.66;5097077;28;20053;-68
2022/05/12 01:50:49;;;;;;;6.70;2.40;;;;;;;-147.05;100.00;58721.66;5099411;28;20047;-69
2022/05/12 01:53:17;;;;;;;7.03;2.40;;;;;;;-147.05;100.00;58721.66;5097013;28;20071;-68
2022/05/12 01:55:47;;;;;;;6.18;2.50;;;;;;;-147.05;100.00;58721.66;5098546;28;20040;-69
2022/05/12 01:58:14;;;;;;;11.20;2.80;;;;;;;-147.05;100.00;58721.66;5098487;28;20055;-67
2022/05/12 02:00:41;;;;;;;9.55;2.70;;;;;;;-147.05;100.00;58721.66;5099460;28;20053;-67
2022/05/12 02:03:09;;;;;;;7.13;2.47;;;;;;;-147.05;100.00;58721.66;5098624;28;20044;-64
2022/05/12 02:05:38;;;;;;;7.82;2.58;;;;;;;-147.05;100.00;58721.66;5099587;28;20076;-65
2022/05/12 02:08:08;;;;;;;9.18;2.67;;;;;;;-147.05;100.00;58721.66;5092192;28;20048;-65
2022/05/12 02:10:38;;;;;;;6.97;2.22;;;;;;;-147.05;100.00;58721.66;5100366;28;20587;-65
2022/05/12 02:13:07;;;;;;;7.97;2.53;;;;;;;-147.05;100.00;58721.66;5099755;28;20838;-64
2022/05/12 02:15:37;;;;;;;5.60;2.33;;;;;;;-147.05;100.00;58721.66;5098823;28;20788;-64
2022/05/12 02:18:06;;;;;;;6.38;2.50;;;;;;;-147.05;100.00;58721.66;5097116;28;20045;-67
2022/05/12 02:20:39;;;;;;;4.55;2.13;;;;;;;-147.05;100.00;58721.66;5096017;28;20044;-69
2022/05/12 02:23:06;;;;;;;6.47;2.65;;;;;;;-147.05;100.00;58721.66;5099284;28;20041;-68
2022/05/12 02:25:33;;;;;;;6.35;2.25;;;;;;;-147.05;100.00;58721.66;5088923;28;20045;-68
2022/05/12 02:28:00;;;;;;;6.72;2.33;;;;;;;-147.05;100.00;58721.66;5096876;28;20860;-69
2022/05/12 02:30:29;;;;;;;7.88;2.60;;;;;;;-147.05;100.00;58721.66;5097101;28;20560;-69
2022/05/12 02:32:58;;;;;;;5.63;2.47;;;;;;;-147.05;100.00;58721.66;5097899;28;20734;-68
2022/05/12 02:35:27;;;;;;;7.32;2.70;;;;;;;-147.05;100.00;58721.66;5096457;28;20888;-68
2022/05/12 02:37:55;;;;;;;5.68;2.45;;;;;;;-147.05;100.00;58721.66;5088831;28;20047;-68
2022/05/12 02:40:25;;;;;;;8.50;2.72;;;;;;;-147.05;100.00;58721.66;5098224;28;20032;-68
2022/05/12 02:42:52;;;;;;;6.03;2.35;;;;;;;-147.05;100.00;58721.66;5097532;28;20048;-67
2022/05/12 02:45:20;;;;;;;6.00;2.33;;;;;;;-147.05;100.00;58721.66;5098164;28;20496;-66
2022/05/12 02:47:47;;;;;;;5.68;2.63;;;;;;;-147.05;100.00;58721.66;5096530;28;20045;-68
2022/05/12 02:50:18;;;;;;;5.70;2.58;;;;;;;-147.05;100.00;58721.66;5088715;28;20045;-68
2022/05/12 02:52:45;;;;;;;8.45;2.50;;;;;;;-147.05;100.00;58721.66;5095187;28;20046;-68
2022/05/12 02:55:14;;;;;;;9.75;2.97;;;;;;;-147.05;100.00;58721.66;5097929;28;20045;-68
2022/05/12 02:57:41;;;;;;;5.60;2.80;;;;;;;-147.05;100.00;58721.66;5097943;28;20043;-68
2022/05/12 03:00:16;;;;;;;7.38;2.65;;;;;;;-147.05;100.00;58721.66;5096931;28;20068;-68
2022/05/12 03:02:43;;;;;;;9.13;3.05;;;;;;;-147.05;100.00;58721.66;5097609;28;20048;-69
2022/05/12 03:05:11;;;;;;;8.38;2.78;;;;;;;-147.05;100.00;58721.66;5109370;28;20054;-69
2022/05/12 03:07:39;;;;;;;7.32;2.97;;;;;;;-147.05;100.00;58721.66;5098016;28;20040;-68
2022/05/12 03:10:08;;;;;;;6.55;2.55;;;;;;;-147.05;100.00;58721.66;5097125;28;20102;-68
2022/05/12 03:12:36;;;;;;;5.20;2.42;;;;;;;-147.05;100.00;58721.66;5097107;28;20041;-69
2022/05/12 03:15:04;;;;;;;7.85;2.83;;;;;;;-147.05;100.00;58721.66;5096968;28;20040;-68
2022/05/12 03:17:33;;;;;;;8.40;3.17;;;;;;;-147.05;100.00;58721.66;5097332;28;20041;-68
2022/05/12 03:20:00;;;;;;;7.78;2.75;;;;;;;-147.05;100.00;58721.66;5096786;28;20037;-69
2022/05/12 03:22:27;;;;;;;7.45;2.97;;;;;;;-147.05;100.00;58721.66;5097922;28;20041;-70
2022/05/12 03:24:54;;;;;;;8.57;2.90;;;;;;;-147.05;100.00;58721.66;5096997;28;20375;-70
2022/05/12 03:27:21;;;;;;;5.43;2.85;;;;;;;-147.05;100.00;58721.66;5094542;28;20131;-67
2022/05/12 03:29:48;;;;;;;9.00;3.15;;;;;;;-147.05;100.00;58721.66;5096354;28;20032;-71
2022/05/12 03:32:15;;;;;;;6.90;3.00;;;;;;;-147.05;100.00;58721.66;5103009;28;20147;-68
2022/05/12 03:34:43;;;;;;;6.38;2.80;;;;;;;-147.05;100.00;58721.66;5096618;28;20048;-70
2022/05/12 03:37:11;;;;;;;7.80;3.13;;;;;;;-147.05;100.00;58721.66;5097598;28;20041;-70
2022/05/12 03:39:43;;;;;;;7.88;3.10;;;;;;;-147.05;100.00;58721.66;5082772;28;20555;-69
2022/05/12 03:42:12;;;;;;;7.90;2.72;;;;;;;-147.05;100.00;58721.66;5078779;28;20033;-70
2022/05/12 03:44:53;;;;;;;7.38;3.10;;;;;;;-147.05;100.00;58721.66;5096417;28;20573;-70
2022/05/12 03:47:27;;;;;;;7.20;2.58;;;;;;;-147.05;100.00;58721.66;5098277;28;20045;-69
2022/05/12 03:49:57;;;;;;;7.70;2.55;;;;;;;-147.05;100.00;58721.66;5095541;28;20044;-69
2022/05/12 03:52:24;;;;;;;11.80;2.85;;;;;;;-147.05;100.00;58721.66;5092327;28;20076;-71
2022/05/12 03:54:51;;;;;;;11.45;2.80;;;;;;;-147.05;100.00;58721.66;5093088;28;20717;-70
2022/05/12 03:57:20;;;;;;;13.90;3.65;;;;;;;-147.05;100.00;58721.66;5096936;28;20076;-70
2022/05/12 03:59:48;;;;;;;8.43;2.88;;;;;;;-147.05;100.00;58721.66;5094227;28;20060;-68
2022/05/12 04:02:17;;;;;;;8.90;3.03;;;;;;;-147.05;100.00;58721.66;5097732;28;20036;-69
2022/05/12 04:04:46;;;;;;;13.02;3.20;;;;;;;-147.05;100.00;58721.66;5096273;28;20683;-68
2022/05/12 04:07:16;;;;;;;10.73;3.03;;;;;;;-147.05;100.00;58721.66;5097560;28;20124;-71
2022/05/12 04:09:43;;;;;;;8.88;2.83;;;;;;;-147.05;100.00;58721.66;5097067;28;20044;-69
2022/05/12 04:12:10;;;;;;;11.10;3.03;;;;;;;-147.05;100.00;58721.66;5095333;28;20055;-68
2022/05/12 04:14:40;;;;;;;11.55;3.30;;;;;;;-147.05;100.00;58721.66;5097712;28;20576;-69
2022/05/12 04:17:10;;;;;;;6.63;2.40;;;;;;;-147.05;100.00;58721.66;5097180;28;20071;-69
2022/05/12 04:19:38;;;;;;;9.88;2.95;;;;;;;-147.05;100.00;58721.66;5096688;28;20067;-69
2022/05/12 04:22:08;;;;;;;11.70;2.85;;;;;;;-147.05;100.00;58721.66;5085648;28;20523;-68
2022/05/12 04:24:36;;;;;;;8.85;2.53;;;;;;;-147.05;100.00;58721.66;5101132;28;20530;-68
2022/05/12 04:27:04;;;;;;;7.93;2.70;;;;;;;-147.05;100.00;58721.66;5099215;28;20051;-69
2022/05/12 04:29:30;;;;;;;10.20;3.15;;;;;;;-147.05;100.00;58721.66;5093831;28;20041;-68
2022/05/12 04:31:57;;;;;;;9.77;3.35;;;;;;;-147.05;100.00;58721.66;5093670;28;20040;-71
2022/05/12 04:37:15;;;;;;;13.98;3.83;;;;;;;-147.05;100.00;58721.66;5093231;28;20556;-69
2022/05/12 04:39:42;;;;;;;18.08;4.40;;;;;;;-147.05;100.00;58721.66;5095303;28;20041;-69
2022/05/12 04:42:09;;;;;;;12.23;3.20;;;;;;;-147.05;100.00;58721.66;5090035;28;20040;-70
2022/05/12 04:44:36;;;;;;;11.98;2.80;;;;;;;-147.05;100.00;58721.66;5095176;28;20052;-69
2022/05/12 04:47:03;;;;;;;10.77;3.63;;;;;;;-147.05;100.00;58721.66;5092989;28;20041;-67
2022/05/12 04:49:30;;;;;;;18.23;4.50;;;;;;;-147.05;100.00;58721.66;5095937;28;20510;-69
2022/05/12 04:52:01;;;;;;;13.32;4.15;;;;;;;-147.05;100.00;58721.66;5095340;28;20052;-70
2022/05/12 04:54:29;;;;;;;18.48;5.15;;;;;;;-147.05;100.00;58721.66;5092446;28;20043;-67
2022/05/12 04:56:56;;;;;;;12.93;5.20;;;;;;;-147.05;100.00;58721.66;5093252;28;20045;-70
2022/05/12 04:59:23;;;;;;;17.27;5.57;;;;;;;-147.05;100.00;58721.66;5075556;28;20609;-69
2022/05/12 05:02:01;;;;;;;23.63;5.50;;;;;;;-147.05;100.00;58721.66;5078078;28;20130;-69
2022/05/12 05:04:28;;;;;;;18.60;5.78;;;;;;;-147.05;100.00;58721.66;5078805;28;20039;-71
2022/05/12 05:06:56;;;;;;;16.50;5.40;;;;;;;-147.05;100.00;58721.66;5079787;28;20037;-70
2022/05/12 05:09:23;;;;;;;12.80;5.68;;;;;;;-147.05;100.00;58721.66;5081465;28;20091;-71
2022/05/12 05:11:51;;;;;;;14.30;5.60;;;;;;;-147.05;100.00;58721.66;5074194;28;20048;-70
2022/05/12 05:14:19;;;;;;;22.27;6.78;;;;;;;-147.05;100.00;58721.66;5080878;28;20048;-70
2022/05/12 05:16:47;;;;;;;17.38;6.38;;;;;;;-147.05;100.00;58721.66;5080376;28;20036;-70
2022/05/12 05:19:14;;;;;;;14.95;6.50;;;;;;;-147.05;100.00;58721.66;5080994;28;20099;-69
2022/05/12 05:21:41;;;;;;;17.90;6.15;;;;;;;-147.05;100.00;58721.66;5077559;28;20045;-70
2022/05/12 05:24:08;;;;;;;16.33;5.82;;;;;;;-147.05;100.00;58721.66;5064960;28;20127;-69
2022/05/12 05:26:35;;;;;;;16.75;6.13;;;;;;;-147.05;100.00;58721.66;5072686;28;20068;-70
2022/05/12 05:29:02;;;;;;;12.48;6.03;;;;;;;-147.05;100.00;58721.66;5069759;28;20037;-70
2022/05/12 05:31:29;;;;;;;16.58;6.63;;;;;;;-147.05;100.00;58721.66;5071324;28;20053;-70
2022/05/12 05:33:57;;;;;;;22.73;6.93;;;;;;;-147.05;100.00;58721.66;5068624;28;20044;-71
2022/05/12 05:36:24;;;;;;;16.88;6.53;;;;;;;-147.05;100.00;58721.66;5071073;28;20049;-70
2022/05/12 05:38:51;;;;;;;16.60;7.07;;;;;;;-147.05;100.00;58721.66;5070963;28;20496;-69
2022/05/12 05:41:18;;;;;;;18.83;6.68;;;;;;;-147.05;100.00;58721.66;5065433;28;20041;-70
2022/05/12 05:43:45;;;;;;;16.50;6.53;;;;;;;-147.05;100.00;58721.66;5074614;28;20576;-71
2022/05/12 05:46:12;;;;;;;15.52;7.00;;;;;;;-147.05;100.00;58721.66;5077337;28;20498;-70
2022/05/12 05:48:43;;;;;;;24.92;7.45;;;;;;;-147.05;100.00;58721.66;5071280;28;20043;-70
2022/05/12 05:53:55;;;;;;;17.42;6.80;;;;;;;-147.05;100.00;58721.66;5070923;28;20053;-71
2022/05/12 05:56:25;;;;;;;19.45;7.35;;;;;;;-147.05;100.00;58721.66;5078341;28;20037;-70
2022/05/12 05:58:52;;;;;;;17.98;7.50;;;;;;;-147.05;100.00;58721.66;5074886;28;20060;-70
2022/05/12 06:01:20;;;;;;;17.23;8.32;;;;;;;-147.05;100.00;58721.66;5089307;28;20032;-70
2022/05/12 06:03:47;;;;;;;20.67;8.63;;;;;;;-147.05;100.00;58721.66;5100280;28;20075;-70
2022/05/12 06:06:14;;;;;;;16.20;8.18;;;;;;;-147.05;100.00;58721.66;5090871;28;20087;-69
2022/05/12 06:08:41;;;;;;;19.10;8.20;;;;;;;-147.05;100.00;58721.66;5099517;28;20052;-70
2022/05/12 06:11:09;;;;;;;16.90;8.48;;;;;;;-147.05;100.00;58721.66;5099416;28;20040;-70
2022/05/12 06:13:36;;;;;;;17.60;8.55;;;;;;;-147.05;100.00;58721.66;5099713;28;20036;-70
2022/05/12 06:16:05;;;;;;;23.67;10.18;;;;;;;-147.05;100.00;58721.66;5100186;28;20040;-71
2022/05/12 06:18:34;;;;;;;19.73;9.20;;;;;;;-147.05;100.00;58721.66;5096984;28;20062;-72
2022/05/12 06:23:35;;;;;;;25.98;10.30;;;;;;;15.63;63.30;101689.88;5101686;27;20053;-69
2022/05/12 06:26:02;;;;;;;20.05;9.95;;;;;;;15.51;64.58;101699.19;5081591;28;20095;-72
2022/05/12 06:28:30;;;;;;;20.05;9.88;;;;;;;15.41;64.81;101697.81;5066940;28;20067;-70
2022/05/12 06:30:57;;;;;;;21.40;10.23;;;;;;;15.36;65.15;101701.50;5087139;28;20037;-71
2022/05/12 06:33:24;;;;;;;23.73;10.20;;;;;;;15.20;65.48;101709.19;5069202;28;20060;-70
2022/05/12 06:35:55;;;;;;;19.10;10.20;;;;;;;15.21;66.58;101699.41;5064402;28;20046;-70
2022/05/12 06:38:22;;;;;;;25.27;10.80;;;;;;;15.05;66.34;101707.94;5047819;28;20507;-70
2022/05/12 06:40:49;;;;;;;23.85;10.32;;;;;;;15.07;66.37;101706.06;5049476;28;20575;-72
2022/05/12 06:43:18;;;;;;;22.70;10.07;;;;;;;15.06;65.56;101707.00;5049448;28;20056;-69
2022/05/12 06:45:46;;;;;;;21.77;10.18;;;;;;;15.20;65.48;101711.84;5047661;28;20120;-70
2022/05/12 06:48:13;;;;;;;18.95;9.95;;;;;;;15.32;65.15;101712.28;5048923;28;20049;-70
2022/05/12 06:50:41;;;;;;;20.73;8.50;;;;;;;15.43;64.54;101712.75;5048763;28;20034;-72
2022/05/12 06:53:08;;;;;;;21.38;9.00;;;;;;;15.56;63.80;101709.66;5048512;28;20037;-70
2022/05/12 06:55:35;;;;;;;20.48;9.32;;;;;;;15.66;63.70;101705.72;5063894;28;20046;-71
2022/05/12 06:58:02;;;;;;;20.40;8.52;;;;;;;15.81;62.76;101714.91;5048700;28;20141;-70
2022/05/12 07:00:29;;;;;;;13.50;6.57;;;;;;;15.90;61.89;101724.38;5048593;28;20041;-69
2022/05/12 07:02:57;;;;;;;16.30;7.63;;;;;;;15.99;61.62;101724.84;5064210;28;20037;-71
2022/05/12 07:05:26;;;;;;;20.30;8.57;;;;;;;16.01;61.60;101724.81;5059933;28;20046;-70
2022/05/12 07:07:54;;;;;;;16.17;7.75;;;;;;;16.08;61.66;101726.28;5064679;28;20041;-71
2022/05/12 07:10:24;;;;;;;16.05;6.65;;;;;;;16.17;60.98;101726.84;5068267;28;20482;-70
2022/05/12 07:12:52;;;;;;;17.42;6.75;;;;;;;16.28;59.88;101729.97;5084381;28;20578;-70
2022/05/12 07:15:25;;;;;;;16.58;6.97;;;;;;;16.32;59.17;101730.69;5068261;28;20487;-71
2022/05/12 07:17:53;;;;;;;19.58;7.57;;;;;;;16.21;58.97;101734.66;5066976;28;20037;-69
2022/05/12 07:28:43;;;;;;;14.50;6.47;;;;;;;16.55;58.06;101735.06;5067781;28;20048;-70
2022/05/12 07:31:13;;;;;;;14.82;7.53;;;;;;;16.46;58.49;101746.97;5068198;28;20052;-70
2022/05/12 07:33:43;;;;;;;15.35;8.10;;;;;;;16.63;58.32;101746.28;5052716;28;20131;-69
2022/05/12 07:36:26;;;;;;;14.45;6.65;;;;;;;16.84;57.11;101738.34;5034496;28;20041;-70
2022/05/12 07:38:57;;;;;;;12.65;6.97;;;;;;;16.95;56.86;101744.06;5033116;28;21205;-69
2022/05/12 07:41:27;;;;;;;17.02;7.45;;;;;;;17.11;57.04;101751.41;5035195;28;20104;-69
2022/05/12 07:43:56;;;;;;;15.93;7.10;;;;;;;17.31;56.69;101755.84;5034919;28;20042;-69
2022/05/12 07:46:30;;;;;;;16.63;7.13;;;;;;;17.48;56.21;101755.13;5034956;28;20038;-70
2022/05/12 07:48:59;;;;;;;13.95;6.22;;;;;;;17.72;55.68;101755.78;5035328;28;20034;-69
2022/05/12 07:51:26;;;;;;;16.33;7.18;;;;;;;18.06;55.46;101748.91;5041952;28;20053;-69
2022/05/12 07:53:54;;;;;;;15.65;7.13;;;;;;;18.32;54.54;101738.78;5034417;28;20808;-70
2022/05/12 07:56:31;;;;;;;12.40;7.20;;;;;;;18.47;54.19;101745.16;5033357;28;20052;-69
2022/05/12 07:59:00;;;;;;;16.05;7.10;;;;;;;18.69;54.06;101750.31;5034021;28;20038;-69
2022/05/12 08:01:28;;;;;;;12.77;6.70;;;;;;;19.03;53.08;101753.13;5034642;28;20125;-70
2022/05/12 08:03:55;;;;;;;16.25;6.35;;;;;;;19.31;53.02;101754.34;5034421;28;20053;-70
2022/05/12 08:06:22;;;;;;;15.20;5.22;;;;;;;19.61;51.08;101753.63;5053496;28;20050;-70
2022/05/12 08:08:51;;;;;;;10.18;4.80;;;;;;;19.81;50.35;101752.56;5051161;28;20038;-69
2022/05/12 08:11:19;;;;;;;16.15;5.90;;;;;;;20.07;49.35;101763.66;5052927;28;20045;-69
2022/05/12 08:13:47;;;;;;;11.25;4.95;;;;;;;20.25;46.73;101767.97;5054636;28;20146;-70
2022/05/12 08:16:19;;;;;;;17.65;5.55;;;;;;;20.33;46.59;101764.84;5050997;28;20053;-69
2022/05/12 08:18:49;;;;;;;13.70;4.95;;;;;;;20.42;47.18;101772.38;5054008;28;20038;-71
2022/05/12 08:21:24;;;;;;;13.88;5.00;;;;;;;20.47;46.25;101775.66;5053788;28;20069;-70
2022/05/12 08:23:52;;;;;;;9.77;4.72;;;;;;;20.65;44.27;101772.84;5053062;28;20052;-69
2022/05/12 08:26:22;;;;;;;18.00;5.28;;;;;;;20.46;45.26;101763.22;5033940;28;20038;-69
2022/05/12 08:28:50;;;;;;;10.50;4.55;;;;;;;20.47;45.72;101778.34;5034076;28;20042;-70
2022/05/12 08:31:24;;;;;;;19.15;4.93;;;;;;;20.60;46.07;101767.75;5033814;28;20112;-71
2022/05/12 08:33:53;;;;;;;17.42;5.07;;;;;;;20.76;44.65;101769.56;5033255;28;20050;-71
2022/05/12 08:36:21;;;;;;;12.80;5.30;;;;;;;20.57;44.99;101773.28;5033741;28;20066;-71
2022/05/12 08:38:48;;;;;;;10.00;4.10;;;;;;;20.33;43.73;101776.44;5037354;28;20046;-68
2022/05/12 08:41:50;;;;;;;13.32;4.32;;;;;;;19.76;44.24;101768.88;5034039;28;20445;-69
2022/05/12 08:44:21;;;;;;;14.85;4.68;;;;;;;19.57;43.42;101779.69;5025290;28;20125;-70
2022/05/12 08:46:55;;;;;;;14.93;4.57;;;;;;;19.23;43.24;101776.13;5047839;28;20042;-70
2022/05/12 08:49:29;;;;;;;10.70;4.47;;;;;;;19.08;43.27;101781.31;5033652;28;20049;-69
2022/05/12 08:52:23;;;;;;;7.35;3.95;;;;;;;19.19;44.74;101762.06;5032265;28;20782;-69
2022/05/12 08:55:01;;;;;;;;;;;;;;;19.63;44.42;101765.13;5033734;28;20045;-69
2022/05/12 08:57:42;;;;;;;10.20;4.50;;;;;;;20.04;44.00;101766.53;5033560;28;19929;-70
2022/05/12 09:00:17;;;;;;;9.38;4.63;;;;;;;20.45;43.23;101776.69;5033361;28;20041;-68
2022/05/12 09:03:26;;;;;;;18.63;4.50;;;;;;;20.71;41.48;101780.53;5033134;28;20050;-70
2022/05/12 09:06:11;;;;;;;13.07;4.32;;;;;;;20.63;40.22;101774.75;5050330;28;20095;-70
2022/05/12 09:09:11;;;;;;;10.13;4.40;;;;;;;20.91;40.12;101771.34;5046648;28;20069;-70
2022/05/12 09:12:31;;;;;;;14.80;5.07;;;;;;;21.13;39.29;101767.38;5032575;28;20045;-70
2022/05/12 09:15:13;;;;;;;8.18;4.20;;;;;;;20.65;40.02;101772.84;5029561;28;20037;-70
2022/05/12 09:17:51;;;;;;;9.93;4.20;;;;;;;20.53;38.68;101785.16;5029772;28;20042;-70
2022/05/12 09:20:19;;;;;;;10.02;3.75;;;;;;;20.42;39.51;101785.75;5031306;28;20061;-70
2022/05/12 09:22:46;;;;;;;7.35;4.10;;;;;;;20.59;38.96;101790.16;5033666;28;20096;-70
2022/05/12 09:25:42;;;;;;;14.70;3.80;;;;;;;20.34;37.99;101793.38;5050025;28;20766;-70
2022/05/12 09:28:39;;;;;;;15.65;3.72;;;;;;;19.70;38.20;101794.13;5052748;28;20045;-70
2022/05/12 09:31:12;;;;;;;8.55;2.85;;;;;;;19.70;39.37;101794.13;5052274;28;20474;-70
2022/05/12 09:33:46;;;;;;;22.88;4.13;;;;;;;20.08;37.76;101789.47;5052978;28;20045;-69
2022/05/12 09:36:28;;;;;;;18.98;4.35;;;;;;;20.42;37.31;101787.59;5048575;28;20044;-69
2022/05/12 09:38:56;;;;;;;5.72;2.47;;;;;;;20.93;37.00;101784.66;5043448;28;20053;-71
2022/05/12 09:41:41;;;;;;;5.25;2.58;;;;;;;21.01;36.43;101774.31;5032549;28;20054;-69
2022/05/12 09:44:22;;;;;;;10.90;3.00;;;;;;;21.19;35.79;101780.41;5041272;28;20057;-70
2022/05/12 09:47:17;;;;;;;10.35;2.50;;;;;;;21.38;34.75;101772.13;5046565;28;20044;-69
2022/05/12 09:49:46;;;;;;;6.80;2.60;;;;;;;21.49;33.45;101784.00;5052653;28;20083;-68
2022/05/12 09:52:36;;;;;;;5.60;2.70;;;;;;;21.04;35.12;101779.53;5033049;28;20838;-69
2022/05/12 09:55:20;;;;;;;11.25;3.47;;;;;;;21.07;35.51;101786.50;5050333;28;20044;-69
2022/05/12 09:58:15;;;;;;;11.10;2.50;;;;;;;21.48;34.61;101769.72;5052582;28;20045;-69
2022/05/12 10:01:22;;;;;;;8.82;3.17;;;;;;;21.51;34.15;101768.69;5048643;28;20064;-68
2022/05/12 10:10:01;;;;;;;26.73;3.20;;;;;;;22.03;32.31;101767.22;5032591;28;20038;-70
2022/05/12 10:13:22;;;;;;;6.10;1.77;;;;;;;21.78;32.70;101766.09;5032383;28;20049;-69
2022/05/12 10:15:54;;;;;;;6.63;2.05;;;;;;;21.55;32.25;101756.78;5008659;28;20049;-71
2022/05/12 10:18:43;;;;;;;7.18;1.65;;;;;;;21.86;32.14;101762.94;5040672;28;20069;-71
2022/05/12 10:21:51;;;;;;;4.15;1.80;;;;;;;22.23;31.30;101757.00;5050146;28;20038;-72
2022/05/12 10:24:43;;;;;;;9.45;2.75;;;;;;;21.40;33.69;101767.53;5035867;28;20075;-70
2022/05/12 10:27:26;;;;;;;9.90;2.45;;;;;;;21.29;34.47;101767.31;5033944;28;20036;-69
2022/05/12 10:30:16;;;;;;;6.30;2.20;;;;;;;20.55;34.74;101759.13;5041371;28;20041;-70
2022/05/12 10:33:26;;;;;;;7.90;2.30;;;;;;;20.42;36.28;101767.00;5048647;28;20045;-70
2022/05/12 10:36:29;;;;;;;6.45;2.03;;;;;;;20.19;34.55;101767.47;5032683;28;20062;-71
2022/05/12 10:39:34;;;;;;;6.75;2.00;;;;;;;20.74;34.60;101763.47;5032095;28;20065;-70
2022/05/12 10:42:21;;;;;;;10.18;2.40;;;;;;;21.49;34.10;101771.44;5032863;28;20871;-69
2022/05/12 10:45:26;;;;;;;9.95;1.60;;;;;;;21.80;33.09;101772.22;5047992;28;20095;-71
2022/05/12 10:48:14;;;;;;;4.20;1.52;;;;;;;21.52;32.73;101771.25;5044058;28;20042;-70
2022/05/12 10:51:02;;;;;;;3.55;1.50;;;;;;;20.97;32.46;101777.28;5044024;28;20042;-71
2022/05/12 10:54:00;;;;;;;16.73;2.00;;;;;;;20.58;33.67;101774.16;5032538;28;20491;-70
2022/05/12 10:57:17;;;;;;;4.05;1.40;;;;;;;20.54;32.62;101764.56;5052009;28;20601;-70
2022/05/12 11:00:08;;;;;;;3.30;1.52;;;;;;;21.05;32.22;101764.31;5045266;28;20129;-71
2022/05/12 11:02:35;;;;;;;6.57;1.60;;;;;;;21.61;31.46;101771.66;5046187;28;20045;-71
2022/05/12 11:05:22;;;;;;;5.15;1.33;;;;;;;21.55;32.73;101762.16;5050440;28;20533;-71
2022/05/12 11:08:25;;;;;;;6.50;1.70;;;;;;;21.63;31.45;101759.03;5031026;28;20044;-70
2022/05/12 11:11:02;;;;;;;22.10;2.33;;;;;;;22.16;32.04;101756.53;5033171;28;20053;-71
2022/05/12 11:13:39;;;;;;;10.45;2.20;;;;;;;22.64;30.89;101751.59;5041396;28;20044;-71
2022/05/12 11:16:23;;;;;;;17.48;2.70;;;;;;;23.32;30.67;101750.66;5054816;28;20045;-71
2022/05/12 11:19:20;;;;;;;9.90;2.38;;;;;;;23.75;28.83;101747.63;5040552;28;20049;-71
2022/05/12 11:22:10;;;;;;;24.30;3.08;;;;;;;24.04;28.20;101745.50;5035110;28;20054;-70
2022/05/12 11:24:52;;;;;;;10.18;2.25;;;;;;;23.81;28.90;101747.16;5034790;28;20057;-71
2022/05/12 11:27:47;;;;;;;32.25;4.18;;;;;;;23.61;29.07;101758.50;5035210;28;20033;-70
2022/05/12 11:30:23;;;;;;;8.48;2.45;;;;;;;22.58;29.80;101757.41;5049094;28;20060;-70
2022/05/12 11:33:35;;;;;;;6.18;2.00;;;;;;;21.33;31.84;101758.13;5044398;28;20430;-71
2022/05/12 11:36:02;;;;;;;13.85;2.05;;;;;;;21.17;32.92;101749.28;5043484;28;20512;-70
2022/05/12 11:38:39;;;;;;;7.88;2.63;;;;;;;21.61;31.58;101743.03;5038294;28;20037;-71
2022/05/12 11:41:27;;;;;;;8.05;2.30;;;;;;;22.37;31.03;101739.97;5050552;28;20041;-70
2022/05/12 11:44:34;;;;;;;16.85;2.67;;;;;;;23.23;30.71;101736.91;5054617;28;20092;-70
2022/05/12 11:48:03;;;;;;;11.45;2.63;;;;;;;23.76;28.83;101743.06;5051050;28;20057;-70
2022/05/12 11:50:48;;;;;;;16.38;2.60;;;;;;;23.20;29.57;101737.09;5053554;28;20153;-71
2022/05/12 11:53:56;;;;;;;11.05;2.33;;;;;;;22.95;29.63;101730.69;5054918;28;20033;-71
2022/05/12 11:56:58;;;;;;;10.75;2.30;;;;;;;22.43;30.39;101732.41;5042605;28;20048;-70
2022/05/12 11:59:30;;;;;;;12.18;2.40;;;;;;;22.27;31.30;101731.69;5052581;28;20057;-71
2022/05/12 12:02:29;;;;;;;11.52;2.50;;;;;;;22.63;30.17;101732.91;5053663;28;20918;-70
2022/05/12 12:05:04;;;;;;;20.60;3.28;;;;;;;22.57;29.44;101728.81;5048916;28;20755;-72